createdAt,value
2022-09-17T00:00:18.997Z,11.20
2022-09-17T00:01:47.907Z,14.10
2022-09-17T00:04:19.535Z,12.50
2022-09-17T00:06:45.485Z,16.00
2022-09-17T00:09:04.088Z,10.40
2022-09-17T00:11:03.171Z,10.70
2022-09-17T00:14:47.641Z,13.70
2022-09-17T00:16:45.553Z,8.60
2022-09-17T00:22:45.392Z,11.20
2022-09-17T00:25:44.087Z,10.30
2022-09-17T00:28:31.405Z,12.50
2022-09-17T00:32:30.031Z,13.00
2022-09-17T00:33:59.893Z,11.00
2022-09-17T00:41:11.893Z,19.80
2022-09-17T00:51:51.109Z,13.10
2022-09-17T00:53:21.025Z,14.70
2022-09-17T00:55:49.943Z,21.10
2022-09-17T00:57:19.731Z,12.80
2022-09-17T01:02:34.009Z,17.30
2022-09-17T01:04:04.847Z,11.80
2022-09-17T01:07:48.786Z,15.50
2022-09-17T01:17:04.145Z,14.70
2022-09-17T01:18:32.202Z,15.30
2022-09-17T01:20:59.100Z,12.10
2022-09-17T01:23:46.605Z,15.50
2022-09-17T01:26:14.308Z,13.40
2022-09-17T01:28:14.546Z,19.40
2022-09-17T01:30:03.949Z,11.90
2022-09-17T01:31:32.696Z,13.60
2022-09-17T01:33:02.622Z,17.70
2022-09-17T01:36:30.873Z,16.20
2022-09-17T01:41:54.910Z,14.70
2022-09-17T01:43:24.833Z,14.00
2022-09-17T01:44:53.654Z,13.30
2022-09-17T01:46:22.559Z,12.00
2022-09-17T01:49:20.164Z,13.30
2022-09-17T01:51:49.114Z,17.30
2022-09-17T02:00:31.713Z,17.40
2022-09-17T02:02:56.695Z,16.70
2022-09-17T02:06:15.001Z,18.40
2022-09-17T02:09:01.754Z,15.80
2022-09-17T02:10:31.596Z,14.30
2022-09-17T02:12:01.500Z,18.60
2022-09-17T02:13:33.281Z,16.20
2022-09-17T02:16:29.529Z,10.30
2022-09-17T02:31:04.982Z,12.80
2022-09-17T02:44:04.815Z,13.70
2022-09-17T02:49:11.393Z,15.40
2022-09-17T02:57:34.006Z,9.70
2022-09-17T03:00:21.816Z,10.20
2022-09-17T03:11:25.325Z,14.50
2022-09-17T03:14:43.026Z,12.10
2022-09-17T03:20:07.357Z,14.50
2022-09-17T03:21:37.406Z,13.60
2022-09-17T03:23:08.056Z,16.20
2022-09-17T03:24:37.107Z,10.80
2022-09-17T03:27:03.359Z,8.60
2022-09-17T03:28:33.226Z,8.90
2022-09-17T03:33:09.942Z,14.20
2022-09-17T03:35:38.195Z,12.70
2022-09-17T03:43:22.642Z,13.20
2022-09-17T03:47:37.867Z,9.90
2022-09-17T03:52:43.236Z,11.90
2022-09-17T04:01:34.157Z,9.30
2022-09-17T04:04:28.882Z,7.50
2022-09-17T04:07:18.264Z,10.20
2022-09-17T04:08:46.385Z,12.70
2022-09-17T04:12:06.845Z,13.60
2022-09-17T04:25:04.100Z,10.10
2022-09-17T04:27:03.829Z,8.30
2022-09-17T04:29:02.201Z,10.80
2022-09-17T04:31:02.531Z,8.40
2022-09-17T04:33:01.035Z,12.00
2022-09-17T04:37:45.422Z,9.30
2022-09-17T04:40:15.802Z,12.80
2022-09-17T04:43:13.344Z,13.70
2022-09-17T04:45:11.400Z,10.00
2022-09-17T04:46:40.293Z,12.60
2022-09-17T04:49:09.755Z,8.80
2022-09-17T04:54:12.869Z,9.20
2022-09-17T05:01:25.361Z,8.50
2022-09-17T05:09:20.034Z,9.00
2022-09-17T05:11:46.856Z,8.60
2022-09-17T05:13:16.748Z,15.20
2022-09-17T05:14:45.705Z,9.80
2022-09-17T05:18:11.877Z,8.10
2022-09-17T05:20:29.992Z,8.20
2022-09-17T05:24:06.222Z,7.30
2022-09-17T05:26:04.110Z,5.60
2022-09-17T05:28:02.141Z,5.90
2022-09-17T05:30:00.100Z,8.10
2022-09-17T05:35:37.519Z,7.60
2022-09-17T05:46:31.050Z,7.00
2022-09-17T05:48:49.835Z,10.30
2022-09-17T05:52:36.452Z,6.90
2022-09-17T05:54:34.380Z,9.20
2022-09-17T05:57:32.464Z,9.60
2022-09-17T06:06:13.077Z,8.70
2022-09-17T06:11:02.470Z,6.60
2022-09-17T06:15:29.785Z,9.20
2022-09-17T06:17:47.487Z,5.50
2022-09-17T06:20:14.525Z,6.50
2022-09-17T06:21:44.215Z,8.10
2022-09-17T06:24:08.824Z,6.60
2022-09-17T06:25:40.070Z,8.00
2022-09-17T06:28:37.867Z,8.60
2022-09-17T06:30:04.316Z,9.60
2022-09-17T06:35:49.490Z,8.10
2022-09-17T06:37:18.408Z,5.10
2022-09-17T06:44:54.610Z,8.30
2022-09-17T06:49:39.870Z,11.80
2022-09-17T06:51:37.674Z,10.70
2022-09-17T06:53:08.810Z,6.60
2022-09-17T06:54:37.216Z,13.50
2022-09-17T06:58:23.683Z,8.80
2022-09-17T06:59:52.632Z,5.70
2022-09-17T07:04:11.442Z,6.80
2022-09-17T07:09:11.083Z,9.40
2022-09-17T07:12:06.581Z,10.00
2022-09-17T07:15:04.278Z,7.10
2022-09-17T07:19:08.295Z,8.10
2022-09-17T07:23:21.659Z,10.90
2022-09-17T07:25:48.335Z,15.30
2022-09-17T07:28:07.940Z,9.50
2022-09-17T07:30:05.861Z,6.50
2022-09-17T07:35:04.612Z,5.80
2022-09-17T07:36:33.439Z,7.30
2022-09-17T07:38:05.293Z,8.60
2022-09-17T07:39:32.211Z,7.70
2022-09-17T07:41:01.110Z,11.30
2022-09-17T07:44:08.582Z,11.70
2022-09-17T07:48:34.783Z,8.40
2022-09-17T07:54:18.828Z,19.90
2022-09-17T07:58:35.435Z,6.50
2022-09-17T08:02:24.504Z,8.50
2022-09-17T08:04:46.282Z,7.20
2022-09-17T08:09:10.969Z,7.60
2022-09-17T08:10:39.570Z,4.90
2022-09-17T08:12:08.559Z,6.10
2022-09-17T08:13:40.441Z,5.00
2022-09-17T08:17:30.885Z,4.90
2022-09-17T08:20:20.578Z,6.80
2022-09-17T08:22:07.321Z,4.90
2022-09-17T08:34:10.921Z,4.80
2022-09-17T08:40:41.322Z,10.90
2022-09-17T08:42:28.077Z,6.20
2022-09-17T08:45:45.197Z,8.60
2022-09-17T08:47:15.392Z,5.50
2022-09-17T08:49:26.825Z,5.70
2022-09-17T08:53:50.448Z,5.90
2022-09-17T08:56:21.633Z,4.30
2022-09-17T08:58:24.820Z,6.10
2022-09-17T09:03:47.845Z,2.90
2022-09-17T09:05:18.187Z,7.80
2022-09-17T09:06:49.649Z,3.40
2022-09-17T09:09:29.007Z,2.40
2022-09-17T09:18:18.837Z,2.50
2022-09-17T09:20:18.897Z,3.20
2022-09-17T09:24:50.267Z,2.20
2022-09-17T09:26:20.229Z,3.20
2022-09-17T09:27:49.157Z,4.30
2022-09-17T09:31:30.711Z,2.60
2022-09-17T09:32:59.873Z,5.70
2022-09-17T09:34:28.869Z,4.20
2022-09-17T09:36:28.717Z,2.80
2022-09-17T09:37:56.918Z,3.30
2022-09-17T09:39:56.739Z,3.10
2022-09-17T09:42:57.131Z,3.10
2022-09-17T09:44:24.409Z,4.10
2022-09-17T09:47:12.420Z,2.90
2022-09-17T09:50:14.452Z,3.00
2022-09-17T09:58:05.251Z,2.10
2022-09-17T09:59:35.220Z,6.30
2022-09-17T10:01:04.067Z,4.90
2022-09-17T10:02:33.523Z,1.20
2022-09-17T10:04:03.822Z,4.60
2022-09-17T10:09:52.290Z,3.00
2022-09-17T10:14:20.016Z,4.10
2022-09-17T10:17:17.901Z,3.60
2022-09-17T10:22:06.689Z,4.70
2022-09-17T10:25:35.738Z,6.00
2022-09-17T10:27:04.640Z,3.30
2022-09-17T10:29:21.701Z,2.80
2022-09-17T10:32:34.141Z,3.10
2022-09-17T10:34:49.034Z,4.70
2022-09-17T10:42:00.295Z,1.80
2022-09-17T10:50:22.338Z,3.40
2022-09-17T10:58:59.605Z,2.50
2022-09-17T11:00:59.121Z,5.60
2022-09-17T11:02:56.772Z,3.60
2022-09-17T11:04:26.672Z,1.80
2022-09-17T11:08:40.902Z,2.60
2022-09-17T11:11:11.198Z,2.30
2022-09-17T11:13:40.214Z,4.60
2022-09-17T11:20:13.390Z,4.70
2022-09-17T11:22:04.941Z,6.30
2022-09-17T11:26:51.679Z,6.20
2022-09-17T11:29:37.967Z,4.30
2022-09-17T11:31:06.914Z,3.20
2022-09-17T11:32:35.858Z,6.30
2022-09-17T11:34:05.807Z,3.10
2022-09-17T11:36:43.278Z,5.00
2022-09-17T11:56:18.586Z,1.50
2022-09-17T11:59:12.247Z,2.30
2022-09-17T12:03:12.466Z,2.90
2022-09-17T12:05:03.072Z,1.70
2022-09-17T12:07:00.239Z,3.00
2022-09-17T12:08:30.109Z,2.10
2022-09-17T12:13:29.468Z,2.00
2022-09-17T12:17:08.256Z,3.40
2022-09-17T12:19:26.015Z,4.20
2022-09-17T12:20:57.275Z,4.40
2022-09-17T12:22:27.063Z,2.60
2022-09-17T12:24:01.114Z,4.30
2022-09-17T12:32:36.812Z,2.70
2022-09-17T12:36:03.660Z,4.40
2022-09-17T12:37:14.142Z,3.60
2022-09-17T12:39:13.142Z,4.30
2022-09-17T12:44:06.378Z,2.10
2022-09-17T12:48:04.867Z,2.30
2022-09-17T12:51:51.428Z,5.90
2022-09-17T12:57:14.087Z,2.40
2022-09-17T12:59:21.981Z,3.80
2022-09-17T13:03:48.713Z,3.70
2022-09-17T13:05:46.662Z,3.80
2022-09-17T13:07:16.549Z,5.20
2022-09-17T13:11:29.856Z,2.50
2022-09-17T13:13:57.659Z,4.60
2022-09-17T13:17:13.631Z,2.80
2022-09-17T13:18:53.891Z,4.90
2022-09-17T13:20:12.491Z,7.00
2022-09-17T13:27:01.834Z,2.50
2022-09-17T13:35:20.097Z,6.20
2022-09-17T13:37:18.985Z,5.50
2022-09-17T13:40:44.631Z,2.30
2022-09-17T13:49:23.603Z,4.60
2022-09-17T13:51:50.347Z,3.40
2022-09-17T13:58:40.600Z,2.80
2022-09-17T14:00:09.422Z,5.30
2022-09-17T14:03:05.268Z,4.20
2022-09-17T14:05:32.072Z,2.80
2022-09-17T14:09:54.547Z,8.20
2022-09-17T14:14:46.907Z,6.00
2022-09-17T14:16:16.840Z,8.30
2022-09-17T14:19:33.195Z,6.00
2022-09-17T14:22:02.290Z,2.90
2022-09-17T14:24:19.856Z,6.90
2022-09-17T14:28:33.332Z,6.80
2022-09-17T14:31:01.583Z,5.80
2022-09-17T14:32:31.399Z,4.90
2022-09-17T14:37:25.949Z,12.40
2022-09-17T14:38:54.879Z,12.40
2022-09-17T14:42:22.788Z,5.90
2022-09-17T14:43:51.544Z,5.60
2022-09-17T14:48:15.807Z,9.20
2022-09-17T14:51:13.395Z,6.50
2022-09-17T14:52:43.411Z,9.30
2022-09-17T14:55:40.096Z,7.10
2022-09-17T14:58:36.841Z,7.60
2022-09-17T15:00:10.179Z,6.50
2022-09-17T15:02:35.186Z,6.70
2022-09-17T15:07:02.129Z,5.50
2022-09-17T15:10:17.828Z,3.30
2022-09-17T15:11:46.718Z,3.90
2022-09-17T15:16:41.148Z,4.20
2022-09-17T15:18:11.031Z,4.80
2022-09-17T15:23:56.685Z,5.20
2022-09-17T15:25:26.694Z,5.70
2022-09-17T15:26:56.584Z,6.30
2022-09-17T15:28:25.447Z,4.80
2022-09-17T15:34:21.346Z,8.60
2022-09-17T15:35:50.259Z,3.60
2022-09-17T15:41:10.205Z,4.70
2022-09-17T15:42:40.462Z,7.70
2022-09-17T15:44:29.184Z,6.50
2022-09-17T15:50:33.709Z,4.30
2022-09-17T15:54:28.404Z,3.70
2022-09-17T15:55:57.479Z,4.30
2022-09-17T15:57:26.429Z,4.40
2022-09-17T16:00:23.709Z,3.50
2022-09-17T16:05:02.241Z,5.60
2022-09-17T16:07:30.972Z,4.40
2022-09-17T16:13:52.361Z,4.70
2022-09-17T16:15:21.239Z,4.60
2022-09-17T16:17:20.506Z,3.50
2022-09-17T16:26:40.687Z,5.20
2022-09-17T16:31:45.087Z,7.50
2022-09-17T16:36:35.870Z,6.20
2022-09-17T16:41:23.488Z,5.90
2022-09-17T16:45:15.927Z,6.10
2022-09-17T16:47:48.192Z,10.20
2022-09-17T16:49:18.110Z,5.50
2022-09-17T16:51:10.990Z,4.20
2022-09-17T16:52:47.213Z,5.90
2022-09-17T16:54:19.723Z,6.10
2022-09-17T16:58:08.675Z,9.30
2022-09-17T16:59:40.050Z,6.70
2022-09-17T17:03:38.440Z,28.40
2022-09-17T17:06:59.531Z,8.80
2022-09-17T17:08:25.597Z,7.70
2022-09-17T17:12:37.849Z,10.00
2022-09-17T17:14:25.457Z,9.20
2022-09-17T17:17:12.097Z,8.10
2022-09-17T17:21:20.507Z,6.90
2022-09-17T17:22:52.381Z,8.60
2022-09-17T17:24:19.278Z,7.30
2022-09-17T17:26:08.972Z,7.00
2022-09-17T17:28:48.680Z,6.60
2022-09-17T17:33:54.733Z,9.90
2022-09-17T17:38:29.779Z,4.90
2022-09-17T17:42:30.421Z,7.10
2022-09-17T17:43:57.762Z,7.20
2022-09-17T17:46:28.294Z,9.60
2022-09-17T17:50:23.880Z,42.60
2022-09-17T17:54:04.230Z,45.90
2022-09-17T17:57:32.139Z,41.60
2022-09-17T17:59:51.747Z,13.90
2022-09-17T18:02:38.504Z,38.20
2022-09-17T18:05:10.108Z,42.30
2022-09-17T18:08:09.146Z,23.50
2022-09-17T18:10:28.152Z,33.70
2022-09-17T18:14:14.556Z,17.00
2022-09-17T18:16:55.754Z,13.40
2022-09-17T18:19:55.814Z,20.40
2022-09-17T18:21:26.479Z,16.10
2022-09-17T18:22:55.566Z,10.60
2022-09-17T18:28:34.391Z,14.20
2022-09-17T18:30:24.048Z,13.80
2022-09-17T18:34:31.542Z,14.70
2022-09-17T18:39:58.584Z,10.50
2022-09-17T18:41:39.010Z,11.10
2022-09-17T18:48:15.827Z,7.30
2022-09-17T18:50:43.644Z,9.90
2022-09-17T18:52:14.249Z,8.10
2022-09-17T18:56:22.230Z,6.30
2022-09-17T18:58:40.038Z,9.00
2022-09-17T19:00:09.014Z,9.90
2022-09-17T19:10:42.298Z,9.80
2022-09-17T19:13:27.008Z,7.30
2022-09-17T19:15:28.858Z,8.80
2022-09-17T19:18:51.506Z,8.30
2022-09-17T19:21:50.851Z,6.10
2022-09-17T19:23:21.285Z,9.50
2022-09-17T19:30:17.264Z,5.70
2022-09-17T19:33:54.823Z,4.30
2022-09-17T19:36:24.084Z,4.90
2022-09-17T19:37:55.394Z,10.30
2022-09-17T19:39:25.802Z,10.20
2022-09-17T19:42:14.412Z,11.50
2022-09-17T19:43:43.409Z,11.30
2022-09-17T19:49:52.814Z,23.20
2022-09-17T19:52:24.337Z,11.90
2022-09-17T19:55:33.886Z,9.40
2022-09-17T20:00:20.393Z,6.50
2022-09-17T20:02:37.245Z,7.00
2022-09-17T20:05:49.456Z,7.60
2022-09-17T20:08:35.887Z,8.60
2022-09-17T20:11:23.538Z,8.80
2022-09-17T20:14:15.156Z,12.20
2022-09-17T20:16:04.084Z,9.90
2022-09-17T20:24:27.246Z,5.20
2022-09-17T20:26:25.994Z,10.10
2022-09-17T20:28:24.117Z,5.90
2022-09-17T20:30:22.705Z,11.20
2022-09-17T20:35:55.545Z,7.70
2022-09-17T20:47:48.060Z,8.20
2022-09-17T20:49:17.639Z,7.30
2022-09-17T20:55:53.788Z,5.00
2022-09-17T20:58:10.833Z,4.50
2022-09-17T21:00:59.336Z,6.10
2022-09-17T21:02:57.324Z,5.50
2022-09-17T21:04:56.901Z,7.50
2022-09-17T21:07:24.892Z,4.80
2022-09-17T21:09:53.557Z,6.50
2022-09-17T21:12:27.403Z,9.80
2022-09-17T21:14:20.584Z,7.80
2022-09-17T21:18:44.950Z,9.10
2022-09-17T21:20:44.725Z,6.40
2022-09-17T21:22:16.548Z,6.30
2022-09-17T21:23:43.664Z,7.10
2022-09-17T21:25:42.452Z,7.40
2022-09-17T21:29:09.205Z,9.60
2022-09-17T21:34:52.582Z,8.40
2022-09-17T21:40:21.640Z,4.90
2022-09-17T21:43:19.248Z,10.60
2022-09-17T21:47:44.140Z,8.50
2022-09-17T21:52:38.607Z,9.20
2022-09-17T21:54:07.510Z,3.80
2022-09-17T21:55:37.379Z,5.40
2022-09-17T21:58:27.811Z,8.40
2022-09-17T22:02:13.600Z,6.10
2022-09-17T22:04:35.445Z,5.60
2022-09-17T22:07:23.580Z,7.40
2022-09-17T22:11:43.538Z,8.90
2022-09-17T22:15:12.459Z,5.70
2022-09-17T22:21:23.844Z,10.80
2022-09-17T22:23:11.748Z,10.90
2022-09-17T22:25:10.760Z,7.30
2022-09-17T22:27:10.534Z,9.30
2022-09-17T22:29:11.426Z,6.00
2022-09-17T22:32:32.688Z,6.30
2022-09-17T22:35:19.340Z,7.70
2022-09-17T22:36:49.649Z,8.10
2022-09-17T22:47:00.691Z,6.10
2022-09-17T22:49:58.593Z,6.00
2022-09-17T22:51:28.562Z,9.00
2022-09-17T22:55:08.154Z,4.20
2022-09-17T23:02:10.678Z,9.00
2022-09-17T23:03:15.867Z,6.80
2022-09-17T23:04:10.323Z,7.20
2022-09-17T23:10:08.925Z,9.20
2022-09-17T23:12:31.505Z,6.30
2022-09-17T23:16:31.945Z,8.70
2022-09-17T23:18:20.417Z,8.60
2022-09-17T23:22:07.895Z,8.90
2022-09-17T23:25:47.774Z,10.90
2022-09-17T23:29:44.764Z,9.70
2022-09-17T23:39:32.672Z,7.20
2022-09-17T23:42:06.710Z,6.80
2022-09-17T23:45:55.318Z,6.20
2022-09-17T23:50:05.347Z,15.20
2022-09-17T23:51:32.638Z,7.20
2022-09-17T23:56:14.650Z,10.70
2022-09-17T23:57:42.618Z,8.60
2022-09-17T23:59:12.464Z,6.10
